Thunder radar more information blitzortung!


Radar de pluja more information rain snow radar


Visita la nostra xarxa de llocs de meteo:

Template documentation
and downloads

And another site



No particular awareness of the weather is required.    There are no Weather-warnings

Pagina Historial Weather Underground text

Diari Resum Marc 29, 2016 Unitats:  Mètric    Imperial   Tant
« Previous Dia
SegĂźent Dia »
Diari Setmana Mensual Anual Personalitzada
  Maxima: Minima: Media:
Temperatura: -17.8 °C -12.5 °C -8.4 °C
Punt de rosada: -17.8 °C -15.8 °C -14.2 °C
Humitat: Humidity % 39 % 51 %
Wind Speed: 0 km/h 0 km/h 10.6 km/h
RĂ fegues de vent: 0 km/h - -
Vent:- - SW
Pression baro: 0 hPa 34361.1 hPa -
Precipitacions: 0 mm    
Historical Graphs
 
 
Dades de taula per Marc 29, 2016
Temps Temperatura Punt de rosada Pression baro Vent Wind Speed RĂ fegues de vent Humitat Rainfall Rate (Hourly)
-17.8 °C -17.8 °C 0 hPa Calm     Humidity % 0 mm
02:15 -12.4 °C -15.6 °C 34428.8 hPa North 2.6 km/h 5.1 km/h 67 % 0 mm
02:25 -12.4 °C -15.6 °C 34428.8 hPa NNE 2.6 km/h 5.1 km/h 67 % 0 mm
02:35 -12.4 °C -15.7 °C 34428.8 hPa NNE 2.6 km/h 2.6 km/h 67 % 0 mm
02:45 -12.3 °C -15.6 °C 34462.7 hPa NNE 2.6 km/h 5.1 km/h 67 % 0 mm
02:55 -12.4 °C -15.6 °C 34428.8 hPa Calm   7.7 km/h 67 % 0 mm
03:05 -12.5 °C -15.7 °C 34428.8 hPa WNW 2.6 km/h 5.1 km/h 67 % 0 mm
03:15 -12.5 °C -15.6 °C 34462.7 hPa Calm   2.6 km/h 68 % 0 mm
03:25 -12.3 °C -15.4 °C 34462.7 hPa ENE 2.6 km/h 5.1 km/h 68 % 0 mm
03:35 -12.2 °C -15.4 °C 34462.7 hPa Calm   5.1 km/h 68 % 0 mm
03:45 -12.2 °C -15.3 °C 34462.7 hPa Calm   2.6 km/h 68 % 0 mm
03:55 -12.1 °C -15.3 °C 34462.7 hPa SSW 2.6 km/h 2.6 km/h 67 % 0 mm
04:05 -11.9 °C -15.1 °C 34462.7 hPa ENE 2.6 km/h 5.1 km/h 68 % 0 mm
04:15 -11.8 °C -15.1 °C 34462.7 hPa NNE 2.6 km/h 5.1 km/h 67 % 0 mm
04:25 -11.6 °C -15 °C 34462.7 hPa NNE 2.6 km/h 7.7 km/h 66 % 0 mm
04:35 -11.5 °C -14.9 °C 34462.7 hPa Calm   5.1 km/h 66 % 0 mm
04:45 -11.2 °C -14.6 °C 34462.7 hPa ENE 2.6 km/h 5.1 km/h 66 % 0 mm
04:55 -11 °C -14.6 °C 34462.7 hPa ENE 5.1 km/h 5.1 km/h 65 % 0 mm
05:05 -10.3 °C -13.8 °C 34462.7 hPa ENE 2.6 km/h 5.1 km/h 65 % 0 mm
05:15 -9.8 °C -13.6 °C 34462.7 hPa East 2.6 km/h 5.1 km/h 64 % 0 mm
05:25 -9.4 °C -13.3 °C 34462.7 hPa ESE 2.6 km/h 7.7 km/h 63 % 0 mm
05:35 -9 °C -12.9 °C 34462.7 hPa SE 2.6 km/h 5.1 km/h 63 % 0 mm
10:41 -9 °C -12.9 °C 34462.7 hPa South 6.3 km/h 6.3 km/h 63 % 0 mm
10:46 -8.6 °C -12.7 °C 34462.7 hPa ESE 11.9 km/h 11.9 km/h 62 % 0 mm
10:47 -8.6 °C -12.7 °C 34462.7 hPa East 11.9 km/h 11.9 km/h 62 % 0 mm
10:52 -8.6 °C -12.7 °C 34462.7 hPa NE 9 km/h 9 km/h 62 % 0 mm
10:57 -8.6 °C -12.7 °C 34462.7 hPa ESE 11.9 km/h 11.9 km/h 61 % 0 mm
11:02 -8.6 °C -12.8 °C 34462.7 hPa ENE 11.9 km/h 11.9 km/h 61 % 0 mm
11:07 -8.3 °C -12.7 °C 34462.7 hPa East 9 km/h 9 km/h 60 % 0 mm
11:12 -8.3 °C -12.8 °C 34462.7 hPa SSE 11.9 km/h 11.9 km/h 59 % 0 mm
11:17 -7.8 °C -12.4 °C 34462.7 hPa SW 11.9 km/h 11.9 km/h 58 % 0 mm
11:22 -7.5 °C -12.2 °C 34462.7 hPa WSW 15 km/h 15 km/h 58 % 0 mm
11:27 -7.7 °C -12.4 °C 34462.7 hPa SW 6.3 km/h 6.3 km/h 57 % 0 mm
11:32 -7.6 °C -12.6 °C 34462.7 hPa WSW 11.1 km/h 11.1 km/h 56 % 0 mm
11:37 -7.4 °C -12.6 °C 34462.7 hPa NW 15 km/h 15 km/h 55 % 0 mm
11:47 -7.2 °C -12.7 °C 34462.7 hPa WSW 9 km/h 9 km/h 53 % 0 mm
11:52 -7 °C -12.4 °C 34462.7 hPa West 9 km/h 9 km/h 53 % 0 mm
11:57 -6.7 °C -12.4 °C 34462.7 hPa WNW 11.9 km/h 11.9 km/h 52 % 0 mm
12:02 -6.7 °C -12.4 °C 34462.7 hPa WSW 11.9 km/h 11.9 km/h 52 % 0 mm
12:07 -6.7 °C -12.6 °C 34428.8 hPa West 20.9 km/h 20.9 km/h 51 % 0 mm
12:12 -6.7 °C -12.7 °C 34428.8 hPa WSW 20.3 km/h 20.3 km/h 50 % 0 mm
12:17 -6.6 °C -12.6 °C 34428.8 hPa ENE 11.9 km/h 11.9 km/h 50 % 0 mm
12:22 -6.6 °C -12.6 °C 34428.8 hPa WNW 17.9 km/h 17.9 km/h 50 % 0 mm
12:27 -6.4 °C -12.4 °C 34428.8 hPa West 11.9 km/h 11.9 km/h 50 % 0 mm
12:32 -6.4 °C -12.4 °C 34428.8 hPa West 9 km/h 9 km/h 50 % 0 mm
12:37 -6.4 °C -12.4 °C 34428.8 hPa South 11.9 km/h 11.9 km/h 50 % 0 mm
12:42 -6.4 °C -12.4 °C 34428.8 hPa WNW 9.8 km/h 9.8 km/h 50 % 0 mm
12:47 -6.4 °C -12.4 °C 34428.8 hPa NNE 11.9 km/h 11.9 km/h 50 % 0 mm
12:52 -6.4 °C -12.4 °C 34428.8 hPa WSW 23.8 km/h 23.8 km/h 50 % 0 mm
12:57 -6.4 °C -12.4 °C 34428.8 hPa West 9 km/h 9 km/h 50 % 0 mm
13:02 -6.4 °C -12.4 °C 34428.8 hPa WSW 20.9 km/h 20.9 km/h 50 % 0 mm
13:07 -6.4 °C -12.4 °C 34395 hPa SW 11.9 km/h 11.9 km/h 50 % 0 mm
13:12 -6 °C -12.4 °C 34395 hPa SW 15 km/h 15.3 km/h 48 % 0 mm
13:17 -6.3 °C -12.8 °C 34395 hPa WSW 15.6 km/h 15.6 km/h 47 % 0 mm
13:22 -6.3 °C -12.8 °C 34395 hPa West 17.9 km/h 17.9 km/h 47 % 0 mm
13:27 -6.3 °C -12.8 °C 34395 hPa West 20.9 km/h 20.9 km/h 47 % 0 mm
13:32 -6.3 °C -12.8 °C 34395 hPa West 15 km/h 15 km/h 47 % 0 mm
13:37 -6.3 °C -12.8 °C 34395 hPa West 15 km/h 15 km/h 47 % 0 mm
13:42 -6.3 °C -12.8 °C 34395 hPa WSW 11.9 km/h 11.9 km/h 47 % 0 mm
13:47 -6.3 °C -12.8 °C 34395 hPa WSW 20.9 km/h 20.9 km/h 47 % 0 mm
13:52 -6.3 °C -12.8 °C 34395 hPa SW 11.1 km/h 11.1 km/h 47 % 0 mm
13:57 -6.1 °C -13 °C 34395 hPa West 15 km/h 15 km/h 45 % 0 mm
14:02 -6.3 °C -13 °C 34395 hPa SW 15 km/h 15 km/h 46 % 0 mm
14:07 -6.4 °C -13.1 °C 34395 hPa SW 6 km/h 7.6 km/h 46 % 0 mm
14:12 -6.3 °C -13 °C 34395 hPa SW 15 km/h 15 km/h 46 % 0 mm
14:17 -6.3 °C -12.9 °C 34395 hPa SW 12.2 km/h 12.2 km/h 46 % 0 mm
14:22 -6.1 °C -13 °C 34395 hPa West 15 km/h 15 km/h 45 % 0 mm
14:27 -6.1 °C -13 °C 34395 hPa SSW 12.7 km/h 12.7 km/h 45 % 0 mm
14:32 -6.1 °C -13 °C 34395 hPa WSW 7.6 km/h 7.6 km/h 45 % 0 mm
14:37 -6.1 °C -12.9 °C 34395 hPa SSW 15.3 km/h 15.3 km/h 45 % 0 mm
14:42 -6 °C -12.9 °C 34395 hPa SW 11.9 km/h 11.9 km/h 45 % 0 mm
14:47 -6 °C -12.9 °C 34395 hPa WNW 15 km/h 15 km/h 45 % 0 mm
14:57 -6 °C -12.9 °C 34395 hPa West 17.9 km/h 17.9 km/h 45 % 0 mm
15:02 -6 °C -12.9 °C 34395 hPa West 8 km/h 8 km/h 45 % 0 mm
15:07 -6 °C -12.9 °C 34428.8 hPa West 15.3 km/h 15.3 km/h 45 % 0 mm
15:12 -6 °C -12.9 °C 34428.8 hPa SSW 11.9 km/h 11.9 km/h 45 % 0 mm
15:17 -6 °C -12.9 °C 34428.8 hPa SSW 29.8 km/h 29.8 km/h 45 % 0 mm
15:22 -5.4 °C -13.1 °C 34395 hPa WSW 27.2 km/h 27.2 km/h 41 % 0 mm
15:27 -5.3 °C -13.2 °C 34395 hPa WSW 26.9 km/h 26.9 km/h 40 % 0 mm
15:32 -5.3 °C -13.2 °C 34395 hPa WSW 20.9 km/h 20.9 km/h 40 % 0 mm
15:37 -5.4 °C -13.2 °C 34361.1 hPa WSW 23.8 km/h 23.8 km/h 41 % 0 mm
15:42 -5.3 °C -13.1 °C 34361.1 hPa SW 15 km/h 15 km/h 41 % 0 mm
15:47 -5.5 °C -13.4 °C 34361.1 hPa WNW 26.9 km/h 26.9 km/h 40 % 0 mm
15:52 -5.4 °C -13.4 °C 34361.1 hPa West 11.9 km/h 11.9 km/h 40 % 0 mm
15:57 -5.5 °C -13.6 °C 34361.1 hPa SW 26.9 km/h 26.9 km/h 39 % 0 mm
16:02 -5.5 °C -13.6 °C 34361.1 hPa SSW 26.9 km/h 26.9 km/h 39 % 0 mm
16:12 -5.4 °C -13.4 °C 34361.1 hPa WSW 9 km/h 9 km/h 40 % 0 mm
16:17 -5.5 °C -13.6 °C 34361.1 hPa WSW 23.8 km/h 23.8 km/h 39 % 0 mm
16:18 -5.5 °C -13.6 °C 34361.1 hPa NNW 20.9 km/h 20.9 km/h 39 % 0 mm
16:23 -5.5 °C -13.6 °C 34361.1 hPa SW 20.3 km/h 20.3 km/h 39 % 0 mm
16:28 -5.6 °C -13.5 °C 34361.1 hPa SW 14 km/h 14 km/h 40 % 0 mm
16:33 -5.7 °C -13.6 °C 34361.1 hPa West 15 km/h 15 km/h 40 % 0 mm
16:38 -5.8 °C -13.7 °C 34361.1 hPa WSW 12.7 km/h 12.7 km/h 40 % 0 mm
16:43 -5.9 °C -13.8 °C 34361.1 hPa SW 29.8 km/h 29.8 km/h 40 % 0 mm
16:48 -5.9 °C -13.8 °C 34361.1 hPa West 17.9 km/h 17.9 km/h 40 % 0 mm
16:53 -6 °C -13.8 °C 34361.1 hPa SSW 17.9 km/h 17.9 km/h 40 % 0 mm
16:58 -6 °C -13.7 °C 34361.1 hPa SW 11.9 km/h 15.3 km/h 41 % 0 mm
17:03 -6.1 °C -13.7 °C 34361.1 hPa WNW 14 km/h 14 km/h 41 % 0 mm
17:08 -6.1 °C -13.8 °C 34361.1 hPa SW 9 km/h 9 km/h 41 % 0 mm
17:13 -6.2 °C -13.8 °C 34361.1 hPa WSW 11.9 km/h 11.9 km/h 41 % 0 mm
17:18 -6.2 °C -13.8 °C 34361.1 hPa WSW 15 km/h 15 km/h 41 % 0 mm
17:23 -6.2 °C -13.7 °C 34395 hPa SW 12.7 km/h 12.7 km/h 42 % 0 mm
17:28 -6.2 °C -13.7 °C 34395 hPa WSW 16.1 km/h 16.1 km/h 42 % 0 mm
17:33 -6.3 °C -13.7 °C 34395 hPa West 20.9 km/h 20.9 km/h 42 % 0 mm
17:38 -6.3 °C -13.7 °C 34361.1 hPa South 8 km/h 8 km/h 42 % 0 mm
17:43 -6.3 °C -13.7 °C 34361.1 hPa SW 12.2 km/h 12.2 km/h 42 % 0 mm
17:48 -6.3 °C -13.8 °C 34361.1 hPa SW 15 km/h 15 km/h 42 % 0 mm
17:58 -6.3 °C -13.8 °C 34361.1 hPa SSW 18.3 km/h 18.3 km/h 42 % 0 mm
18:03 -6.4 °C -13.7 °C 34361.1 hPa West 15 km/h 15 km/h 43 % 0 mm
18:08 -6.5 °C -13.7 °C 34395 hPa WSW 20.9 km/h 20.9 km/h 43 % 0 mm
18:13 -6.6 °C -13.8 °C 34395 hPa WSW 15 km/h 15 km/h 43 % 0 mm
18:18 -6.6 °C -13.8 °C 34395 hPa SW 15 km/h 15 km/h 43 % 0 mm
18:23 -6.7 °C -13.8 °C 34395 hPa SSW 11.9 km/h 11.9 km/h 43 % 0 mm
18:28 -6.7 °C -13.8 °C 34395 hPa SW 19.6 km/h 19.6 km/h 43 % 0 mm
18:33 -6.7 °C -13.8 °C 34395 hPa SW 22 km/h 22 km/h 43 % 0 mm
18:38 -6.7 °C -13.8 °C 34395 hPa SSW 23.8 km/h 23.8 km/h 43 % 0 mm
18:43 -6.8 °C -14 °C 34395 hPa SW 15 km/h 15 km/h 43 % 0 mm
18:48 -6.9 °C -14.1 °C 34395 hPa WSW 15 km/h 15 km/h 43 % 0 mm
18:53 -6.9 °C -14.1 °C 34361.1 hPa SW 11.1 km/h 11.1 km/h 43 % 0 mm
18:58 -7 °C -14.2 °C 34361.1 hPa SW 11.9 km/h 11.9 km/h 43 % 0 mm
19:03 -7 °C -14.2 °C 34361.1 hPa SSW 15 km/h 15 km/h 43 % 0 mm
19:05 -10.4 °C -15.5 °C 34462.7 hPa WSW 2.6 km/h   54 % 0 mm
19:08 -7.1 °C -14.2 °C 34395 hPa WSW 17.9 km/h 17.9 km/h 43 % 0 mm
19:13 -7.1 °C -14.3 °C 34395 hPa SSW 11.9 km/h 11.9 km/h 43 % 0 mm
19:15 -10.4 °C -15.5 °C 34496.6 hPa WSW 5.1 km/h 7.7 km/h 54 % 0 mm
19:18 -7.2 °C -14.3 °C 34395 hPa WSW 11.9 km/h 11.9 km/h 43 % 0 mm
19:23 -7.3 °C -14.2 °C 34395 hPa SW 11.9 km/h 11.9 km/h 44 % 0 mm
19:25 -10.4 °C -15.4 °C 34462.7 hPa WSW 5.1 km/h 5.1 km/h 54 % 0 mm
19:28 -7.3 °C -14.1 °C 34395 hPa WSW 15.3 km/h 15.3 km/h 45 % 0 mm
19:33 -7.3 °C -14.1 °C 34395 hPa WSW 17.9 km/h 17.9 km/h 45 % 0 mm
19:35 -10.4 °C -15.4 °C 34462.7 hPa WSW 5.1 km/h 7.7 km/h 54 % 0 mm
19:38 -7.4 °C -14.2 °C 34395 hPa SSW 17.9 km/h 17.9 km/h 45 % 0 mm
19:43 -7.6 °C -14.3 °C 34395 hPa SW 20.9 km/h 20.9 km/h 45 % 0 mm
19:45 -10.7 °C -15.4 °C 34462.7 hPa SW 2.6 km/h 5.1 km/h 56 % 0 mm
19:48 -7.7 °C -14.4 °C 34395 hPa SSW 15.3 km/h 15.3 km/h 45 % 0 mm
19:55 -10.7 °C -15.4 °C 34462.7 hPa East 2.6 km/h 7.7 km/h 56 % 0 mm
19:58 -7.9 °C -14.5 °C 34395 hPa WSW 20.9 km/h 20.9 km/h 46 % 0 mm
20:03 -8 °C -14.6 °C 34395 hPa SSW 20.9 km/h 20.9 km/h 46 % 0 mm
20:05 -10.7 °C -15.4 °C 34462.7 hPa ENE 2.6 km/h 5.1 km/h 56 % 0 mm
20:08 -8.2 °C -14.7 °C 34395 hPa SW 17.9 km/h 17.9 km/h 46 % 0 mm
20:13 -8.3 °C -14.8 °C 34395 hPa SSW 20.9 km/h 20.9 km/h 46 % 0 mm
20:15 -10.9 °C -15.5 °C 34462.7 hPa Calm   5.1 km/h 57 % 0 mm
20:18 -8.3 °C -14.7 °C 34395 hPa SW 15 km/h 15 km/h 47 % 0 mm
20:23 -8.4 °C -14.6 °C 34395 hPa SW 16.6 km/h 16.6 km/h 48 % 0 mm
20:25 -10.9 °C -15.6 °C 34462.7 hPa Calm     57 % 0 mm
20:28 -8.6 °C -14.7 °C 34395 hPa SSW 15 km/h 15 km/h 48 % 0 mm
20:33 -8.6 °C -14.7 °C 34395 hPa SSW 20.9 km/h 20.9 km/h 48 % 0 mm
20:35 -10.9 °C -15.6 °C 34462.7 hPa Calm   5.1 km/h 57 % 0 mm
20:38 -8.6 °C -14.6 °C 34395 hPa WSW 15 km/h 15 km/h 49 % 0 mm
20:43 -8.7 °C -14.6 °C 34395 hPa WSW 20.9 km/h 20.9 km/h 49 % 0 mm
20:45 -10.9 °C -15.6 °C 34428.8 hPa Calm     57 % 0 mm
20:48 -8.7 °C -14.7 °C 34395 hPa WSW 15 km/h 15 km/h 49 % 0 mm
20:53 -8.7 °C -14.7 °C 34395 hPa SW 25.1 km/h 25.1 km/h 49 % 0 mm
20:55 -10.9 °C -15.6 °C 34462.7 hPa Calm     57 % 0 mm
20:58 -8.8 °C -14.8 °C 34395 hPa WSW 15 km/h 15 km/h 49 % 0 mm
21:03 -8.8 °C -14.8 °C 34395 hPa SW 15 km/h 15 km/h 49 % 0 mm
21:05 -10.9 °C -15.6 °C 34462.7 hPa Calm   5.1 km/h 57 % 0 mm
21:13 -8.8 °C -14.8 °C 34428.8 hPa SW 9 km/h 9 km/h 49 % 0 mm
21:15 -10.9 °C -15.6 °C 34428.8 hPa Calm   5.1 km/h 57 % 0 mm
21:18 -8.8 °C -14.8 °C 34428.8 hPa WSW 11.9 km/h 11.9 km/h 49 % 0 mm
21:23 -8.8 °C -14.8 °C 34395 hPa SW 17.9 km/h 17.9 km/h 49 % 0 mm
21:28 -8.8 °C -14.8 °C 34395 hPa WSW 15 km/h 15 km/h 49 % 0 mm
21:33 -8.8 °C -14.8 °C 34395 hPa SSW 15 km/h 15 km/h 49 % 0 mm
21:35 -11.3 °C -15.5 °C 34428.8 hPa SW 5.1 km/h 5.1 km/h 60 % 0 mm
21:38 -8.8 °C -14.8 °C 34395 hPa SSW 15 km/h 15 km/h 49 % 0 mm
21:43 -8.8 °C -14.8 °C 34395 hPa SW 11.9 km/h 11.9 km/h 49 % 0 mm
21:45 -11.4 °C -15.4 °C 34428.8 hPa Calm   2.6 km/h 61 % 0 mm
21:48 -8.8 °C -14.8 °C 34395 hPa SSW 6.8 km/h 6.8 km/h 49 % 0 mm
21:53 -9.4 °C -14.9 °C 34428.8 hPa West 6 km/h 6 km/h 51 % 0 mm
21:55 -11.4 °C -15.4 °C 34428.8 hPa Calm   2.6 km/h 61 % 0 mm
21:58 -9.4 °C -14.9 °C 34428.8 hPa Calm     51 % 0 mm
22:03 -9.4 °C -14.9 °C 34428.8 hPa ESE 3.7 km/h 3.7 km/h 51 % 0 mm
22:05 -11.4 °C -15.4 °C 34428.8 hPa Calm     61 % 0 mm
22:08 -9.5 °C -15.1 °C 34428.8 hPa WSW 5.6 km/h 5.6 km/h 51 % 0 mm
22:13 -9.5 °C -15.1 °C 34428.8 hPa Calm     51 % 0 mm
22:15 -11.3 °C -15.2 °C 34428.8 hPa Calm   2.6 km/h 62 % 0 mm
22:18 -9.5 °C -15.1 °C 34428.8 hPa NW 6.8 km/h 6.8 km/h 51 % 0 mm
22:23 -9.6 °C -15.1 °C 34428.8 hPa NW 6 km/h 6 km/h 51 % 0 mm
22:25 -11.3 °C -15.2 °C 34428.8 hPa Calm   2.6 km/h 62 % 0 mm
22:28 -9.6 °C -15.2 °C 34428.8 hPa Calm     51 % 0 mm
22:33 -9.7 °C -15.2 °C 34428.8 hPa Calm     51 % 0 mm
22:35 -11.6 °C -15.7 °C 34428.8 hPa Calm   2.6 km/h 61 % 0 mm
22:38 -9.7 °C -15.2 °C 34462.7 hPa WNW 3.1 km/h 3.1 km/h 51 % 0 mm
22:43 -9.7 °C -15.3 °C 34462.7 hPa WNW 6.8 km/h 6.8 km/h 51 % 0 mm
22:45 -11.6 °C -15.7 °C 34428.8 hPa Calm   5.1 km/h 61 % 0 mm
22:48 -9.7 °C -15.2 °C 34462.7 hPa NW 6 km/h 6 km/h 51 % 0 mm
22:53 -9.7 °C -15.1 °C 34462.7 hPa WNW 9 km/h 9 km/h 52 % 0 mm
22:58 -9.7 °C -15.1 °C 34462.7 hPa WNW 4.2 km/h   52 % 0 mm
23:03 -9.8 °C -15.2 °C 34462.7 hPa North 3.1 km/h   52 % 0 mm
23:05 -11.6 °C -15.7 °C 34428.8 hPa NNW 2.6 km/h 2.6 km/h 61 % 0 mm
23:08 -9.9 °C -15.3 °C 34462.7 hPa West 3.1 km/h   52 % 0 mm
23:13 -9.9 °C -15.3 °C 34462.7 hPa West 4.2 km/h   52 % 0 mm
23:15 -11.9 °C -15.4 °C 34428.8 hPa Calm   2.6 km/h 65 % 0 mm
23:18 -10.1 °C -15.4 °C 34462.7 hPa WSW 4.2 km/h 4.2 km/h 52 % 0 mm
23:23 -10.2 °C -15.6 °C 34462.7 hPa WSW 4.2 km/h 4.2 km/h 52 % 0 mm
23:25 -12 °C -15.5 °C 34462.7 hPa North 5.1 km/h 5.1 km/h 65 % 0 mm
23:28 -10.3 °C -15.5 °C 34462.7 hPa WSW 3.1 km/h   53 % 0 mm
23:33 -10.3 °C -15.6 °C 34462.7 hPa Calm     53 % 0 mm
23:35 -12.2 °C -15.8 °C 34462.7 hPa Calm   2.6 km/h 64 % 0 mm
23:38 -10.4 °C -15.7 °C 34462.7 hPa SW 6 km/h 6 km/h 53 % 0 mm
23:43 -10.5 °C -15.7 °C 34462.7 hPa WSW 6 km/h 6 km/h 53 % 0 mm
23:45 -12.1 °C -15.6 °C 34462.7 hPa Calm   2.6 km/h 65 % 0 mm
23:48 -10.6 °C -15.8 °C 34462.7 hPa WNW 3.1 km/h 3.1 km/h 53 % 0 mm
23:53 -10.5 °C -15.7 °C 34462.7 hPa West 6 km/h 6 km/h 53 % 0 mm
23:55 -11.9 °C -15.6 °C 34428.8 hPa West 2.6 km/h 5.1 km/h 64 % 0 mm
23:58 -10.4 °C -15.5 °C 34462.7 hPa West 3.7 km/h 3.7 km/h 54 % 0 mm
Meteo Sesrovires
Elogis d' Weather Underground - 2 mb

Guio original per  Jim McMurry - jmcmurry@mwt.net Adaptat per a la plantilla per  Wim van der Kuil - Leuven-Template.eu

Trobareu la nostra informacio del temps tambe a:

Weather Underground

AWEKAS